createdAt,value
2022-08-02T00:00:38.374Z,101584.63
2022-08-02T00:03:05.289Z,101591.69
2022-08-02T00:05:32.434Z,101587.31
2022-08-02T00:07:59.388Z,101590.00
2022-08-02T00:10:26.292Z,101581.25
2022-08-02T00:12:53.788Z,101581.31
2022-08-02T00:15:22.145Z,101590.97
2022-08-02T00:17:49.051Z,101588.41
2022-08-02T00:20:16.460Z,101584.94
2022-08-02T00:22:43.512Z,101582.34
2022-08-02T00:25:10.624Z,101586.72
2022-08-02T00:27:37.554Z,101585.91
2022-08-02T00:30:05.026Z,101587.69
2022-08-02T00:32:32.017Z,101596.50
2022-08-02T00:34:58.914Z,101601.75
2022-08-02T00:37:25.840Z,101589.53
2022-08-02T00:39:52.736Z,101591.31
2022-08-02T00:42:19.913Z,101596.56
2022-08-02T00:44:46.817Z,101601.84
2022-08-02T00:47:19.128Z,101600.09
2022-08-02T00:49:46.782Z,101600.13
2022-08-02T00:52:13.981Z,101600.16
2022-08-02T00:54:41.176Z,101600.19
2022-08-02T00:57:08.212Z,101601.97
2022-08-02T00:59:35.108Z,101609.88
2022-08-02T01:02:02.100Z,101608.13
2022-08-02T01:04:31.584Z,101606.41
2022-08-02T01:07:01.379Z,101614.31
2022-08-02T01:09:30.433Z,101608.22
2022-08-02T01:11:57.345Z,101607.38
2022-08-02T01:14:29.702Z,101605.63
2022-08-02T01:17:43.067Z,101613.56
2022-08-02T01:20:38.364Z,101618.84
2022-08-02T01:23:58.713Z,101614.47
2022-08-02T01:26:49.274Z,101614.50
2022-08-02T01:29:21.261Z,101621.53
2022-08-02T01:32:16.676Z,101621.56
2022-08-02T01:34:53.617Z,101618.94
2022-08-02T01:37:35.873Z,101628.59
2022-08-02T01:40:09.599Z,101626.00
2022-08-02T01:42:40.143Z,101626.00
2022-08-02T01:45:09.560Z,101629.53
2022-08-02T01:47:40.525Z,101629.50
2022-08-02T01:50:11.128Z,101629.50
2022-08-02T01:52:53.168Z,101641.81
2022-08-02T01:55:33.635Z,101641.81
2022-08-02T01:58:14.670Z,101640.06
2022-08-02T02:00:42.883Z,101650.59
2022-08-02T02:03:18.437Z,101649.72
2022-08-02T02:05:48.650Z,101641.84
2022-08-02T02:08:27.467Z,101645.38
2022-08-02T02:10:56.713Z,101642.75
2022-08-02T02:13:33.374Z,101651.53
2022-08-02T02:16:04.137Z,101644.56
2022-08-02T02:18:34.473Z,101646.28
2022-08-02T02:21:01.397Z,101645.41
2022-08-02T02:23:30.150Z,101644.53
2022-08-02T02:26:05.454Z,101648.06
2022-08-02T02:28:37.318Z,101648.94
2022-08-02T02:31:10.212Z,101638.41
2022-08-02T02:33:51.452Z,101642.81
2022-08-02T02:36:20.188Z,101648.94
2022-08-02T02:38:48.673Z,101649.81
2022-08-02T02:41:17.618Z,101642.81
2022-08-02T02:43:46.005Z,101630.56
2022-08-02T02:46:13.253Z,101635.84
2022-08-02T02:48:40.713Z,101626.19
2022-08-02T02:51:14.030Z,101626.22
2022-08-02T02:54:30.519Z,101638.47
2022-08-02T02:56:30.384Z,101643.75
2022-08-02T02:58:57.841Z,101640.25
2022-08-02T03:01:55.248Z,101631.50
2022-08-02T03:04:15.651Z,101632.41
2022-08-02T03:06:42.677Z,101635.00
2022-08-02T03:09:11.452Z,101632.41
2022-08-02T03:11:39.715Z,101631.53
2022-08-02T03:14:11.688Z,101628.91
2022-08-02T03:16:47.801Z,101623.66
2022-08-02T03:19:15.448Z,101622.81
2022-08-02T03:21:44.653Z,101622.81
2022-08-02T03:24:12.457Z,101627.19
2022-08-02T03:26:39.624Z,101622.81
2022-08-02T03:29:09.946Z,101624.53
2022-08-02T03:31:41.864Z,101617.53
2022-08-02T03:34:09.118Z,101615.81
2022-08-02T03:36:37.460Z,101628.91
2022-08-02T03:39:05.471Z,101628.06
2022-08-02T03:41:33.345Z,101626.31
2022-08-02T03:44:01.048Z,101626.31
2022-08-02T03:46:28.192Z,101628.94
2022-08-02T03:48:55.922Z,101623.69
2022-08-02T03:51:23.442Z,101626.31
2022-08-02T03:53:50.872Z,101629.81
2022-08-02T03:56:18.321Z,101628.06
2022-08-02T03:58:49.042Z,101630.69
2022-08-02T04:01:16.514Z,101633.31
2022-08-02T04:03:43.685Z,101635.06
2022-08-02T04:06:10.643Z,101634.19
2022-08-02T04:08:38.856Z,101635.94
2022-08-02T04:11:25.129Z,101636.81
2022-08-02T04:13:54.719Z,101647.31
2022-08-02T04:16:34.952Z,101640.28
2022-08-02T04:19:04.168Z,101646.38
2022-08-02T04:21:50.275Z,101647.25
2022-08-02T04:24:24.534Z,101647.25
2022-08-02T04:26:57.960Z,101642.84
2022-08-02T04:29:30.595Z,101643.69
2022-08-02T04:31:57.669Z,101644.53
2022-08-02T04:34:24.722Z,101645.41
2022-08-02T04:36:52.073Z,101644.53
2022-08-02T04:39:19.623Z,101655.03
2022-08-02T04:41:47.966Z,101647.97
2022-08-02T04:44:15.137Z,101648.81
2022-08-02T04:46:44.621Z,101643.50
2022-08-02T04:49:12.110Z,101649.63
2022-08-02T04:51:42.218Z,101654.81
2022-08-02T04:54:11.458Z,101654.81
2022-08-02T04:56:39.437Z,101654.75
2022-08-02T04:59:07.296Z,101660.00
2022-08-02T05:01:35.663Z,101667.81
2022-08-02T05:04:03.322Z,101674.78
2022-08-02T05:06:30.326Z,101675.59
2022-08-02T05:08:57.351Z,101671.19
2022-08-02T05:11:34.198Z,101678.19
2022-08-02T05:14:02.123Z,101680.75
2022-08-02T05:16:31.050Z,101676.31
2022-08-02T05:19:03.296Z,101680.66
2022-08-02T05:21:31.788Z,101676.22
2022-08-02T05:23:59.028Z,101688.44
2022-08-02T05:26:25.956Z,101692.78
2022-08-02T05:28:52.876Z,101693.59
2022-08-02T05:31:20.212Z,101686.47
2022-08-02T05:33:47.375Z,101695.22
2022-08-02T05:36:14.258Z,101694.25
2022-08-02T05:38:42.775Z,101695.91
2022-08-02T05:41:19.129Z,101701.09
2022-08-02T05:43:47.052Z,101699.34
2022-08-02T05:46:14.225Z,101704.53
2022-08-02T05:48:41.177Z,101704.44
2022-08-02T05:51:19.953Z,101704.41
2022-08-02T05:53:59.309Z,101704.25
2022-08-02T05:56:47.651Z,101703.28
2022-08-02T05:59:48.614Z,101704.03
2022-08-02T06:02:30.745Z,101706.53
2022-08-02T06:05:16.809Z,101697.63
2022-08-02T06:07:45.502Z,101693.97
2022-08-02T06:10:14.546Z,101691.19
2022-08-02T06:13:14.655Z,101695.44
2022-08-02T06:15:53.480Z,101685.66
2022-08-02T06:18:28.462Z,101695.19
2022-08-02T06:22:32.444Z,101695.13
2022-08-02T06:23:57.539Z,101695.91
2022-08-02T06:26:27.184Z,101692.34
2022-08-02T06:28:57.031Z,101694.06
2022-08-02T06:31:24.290Z,101694.00
2022-08-02T06:33:51.210Z,101686.94
2022-08-02T06:36:46.293Z,101691.22
2022-08-02T06:39:44.741Z,101679.59
2022-08-02T06:42:16.477Z,101687.38
2022-08-02T06:44:57.747Z,101688.09
2022-08-02T06:47:25.803Z,101683.53
2022-08-02T06:49:54.397Z,101687.75
2022-08-02T06:52:31.607Z,101684.94
2022-08-02T06:55:00.440Z,101682.16
2022-08-02T06:57:28.656Z,101677.63
2022-08-02T06:59:55.589Z,101688.03
2022-08-02T07:02:22.850Z,101690.50
2022-08-02T07:04:50.067Z,101685.06
2022-08-02T07:07:17.076Z,101695.47
2022-08-02T07:09:56.764Z,101691.84
2022-08-02T07:12:32.579Z,101691.75
2022-08-02T07:15:02.191Z,101695.19
2022-08-02T07:17:30.067Z,101689.78
2022-08-02T07:19:57.907Z,101699.34
2022-08-02T07:22:26.886Z,101708.97
2022-08-02T07:24:56.229Z,101698.19
2022-08-02T07:27:23.858Z,101697.19
2022-08-02T07:29:51.022Z,101698.03
2022-08-02T07:32:20.455Z,101702.31
2022-08-02T07:34:51.393Z,101695.22
2022-08-02T07:37:35.359Z,101687.25
2022-08-02T07:40:20.097Z,101685.34
2022-08-02T07:42:52.229Z,101679.88
2022-08-02T07:45:20.825Z,101673.44
2022-08-02T07:47:47.845Z,101667.03
2022-08-02T07:50:16.851Z,101670.34
2022-08-02T07:52:45.264Z,101677.16
2022-08-02T07:55:14.313Z,101678.72
2022-08-02T07:57:46.195Z,101684.63
2022-08-02T08:00:16.249Z,101683.47
2022-08-02T08:02:44.224Z,101676.94
2022-08-02T08:05:12.011Z,101674.03
2022-08-02T08:07:39.496Z,101680.88
2022-08-02T08:10:07.948Z,101682.50
2022-08-02T08:12:34.859Z,101680.56
2022-08-02T08:15:01.944Z,101670.75
2022-08-02T08:17:28.924Z,101673.97
2022-08-02T08:19:55.909Z,101684.47
2022-08-02T08:22:23.051Z,101672.94
2022-08-02T08:24:50.367Z,101671.88
2022-08-02T08:27:22.471Z,101668.13
2022-08-02T08:29:49.926Z,101660.81
2022-08-02T08:32:17.879Z,101664.22
2022-08-02T08:34:49.544Z,101671.19
2022-08-02T08:37:18.045Z,101665.75
2022-08-02T08:39:57.979Z,101661.19
2022-08-02T08:42:27.192Z,101658.41
2022-08-02T08:44:56.617Z,101653.69
2022-08-02T08:47:42.796Z,101652.66
2022-08-02T08:50:24.773Z,101648.91
2022-08-02T08:53:03.339Z,101651.34
2022-08-02T08:55:31.192Z,101648.41
2022-08-02T08:58:00.563Z,101638.53
2022-08-02T09:00:28.215Z,101645.50
2022-08-02T09:02:55.142Z,101641.00
2022-08-02T09:05:22.174Z,101645.22
2022-08-02T09:07:53.551Z,101651.16
2022-08-02T09:10:47.215Z,101661.72
2022-08-02T09:13:38.085Z,101651.84
2022-08-02T09:16:14.472Z,101652.50
2022-08-02T09:18:47.309Z,101647.19
2022-08-02T09:21:16.605Z,101655.75
2022-08-02T09:23:49.870Z,101650.28
2022-08-02T09:26:23.695Z,101652.00
2022-08-02T09:28:53.242Z,101659.69
2022-08-02T09:31:24.408Z,101650.66
2022-08-02T09:33:57.121Z,101655.78
2022-08-02T09:36:25.613Z,101652.03
2022-08-02T09:38:57.280Z,101642.13
2022-08-02T09:41:28.098Z,101641.16
2022-08-02T09:44:05.451Z,101647.16
2022-08-02T09:46:39.757Z,101641.75
2022-08-02T09:49:10.284Z,101637.13
2022-08-02T09:51:47.691Z,101632.50
2022-08-02T09:54:20.907Z,101639.44
2022-08-02T09:57:01.995Z,101632.28
2022-08-02T09:59:29.733Z,101641.66
2022-08-02T10:02:02.205Z,101637.00
2022-08-02T10:04:34.252Z,101634.22
2022-08-02T10:07:04.366Z,101637.47
2022-08-02T10:09:32.458Z,101634.59
2022-08-02T10:12:01.108Z,101632.69
2022-08-02T10:14:28.547Z,101634.25
2022-08-02T10:16:57.741Z,101626.06
2022-08-02T10:20:00.340Z,101624.97
2022-08-02T10:22:15.655Z,101611.41
2022-08-02T10:24:48.146Z,101618.16
2022-08-02T10:27:22.567Z,101604.69
2022-08-02T10:29:54.763Z,101610.69
2022-08-02T10:32:33.544Z,101596.38
2022-08-02T10:35:20.043Z,101581.28
2022-08-02T10:37:58.625Z,101586.13
2022-08-02T10:40:28.569Z,101579.72
2022-08-02T10:43:01.199Z,101582.06
2022-08-02T10:45:28.838Z,101573.94
2022-08-02T10:48:14.477Z,101571.84
2022-08-02T10:50:47.923Z,101580.53
2022-08-02T10:53:32.159Z,101587.50
2022-08-02T10:56:03.047Z,101584.53
2022-08-02T10:58:32.589Z,101579.88
2022-08-02T11:01:38.953Z,101582.41
2022-08-02T11:04:10.462Z,101580.41
2022-08-02T11:07:11.470Z,101595.31
2022-08-02T11:09:38.480Z,101594.25
2022-08-02T11:12:15.126Z,101601.19
2022-08-02T11:15:00.879Z,101593.09
2022-08-02T11:17:40.989Z,101593.75
2022-08-02T11:20:11.226Z,101593.69
2022-08-02T11:22:40.189Z,101599.84
2022-08-02T11:25:22.335Z,101597.03
2022-08-02T11:27:50.893Z,101595.94
2022-08-02T11:30:27.274Z,101577.28
2022-08-02T11:32:59.040Z,101580.59
2022-08-02T11:35:34.491Z,101585.84
2022-08-02T11:38:14.513Z,101583.16
2022-08-02T11:40:43.993Z,101584.13
2022-08-02T11:43:24.005Z,101579.53
2022-08-02T11:45:52.449Z,101584.84
2022-08-02T11:48:38.839Z,101576.72
2022-08-02T11:51:17.260Z,101572.91
2022-08-02T11:53:53.686Z,101581.56
2022-08-02T11:56:32.825Z,101567.09
2022-08-02T11:59:10.426Z,101567.75
2022-08-02T12:01:45.647Z,101559.59
2022-08-02T12:04:19.410Z,101557.47
2022-08-02T12:07:01.054Z,101558.28
2022-08-02T12:09:30.461Z,101558.00
2022-08-02T12:11:59.017Z,101560.41
2022-08-02T12:14:28.038Z,101556.50
2022-08-02T12:17:14.465Z,101562.56
2022-08-02T12:19:42.622Z,101561.56
2022-08-02T12:22:27.335Z,101561.28
2022-08-02T12:24:57.167Z,101559.16
2022-08-02T12:27:40.492Z,101559.06
2022-08-02T12:30:10.538Z,101560.50
2022-08-02T12:32:38.358Z,101548.72
2022-08-02T12:35:14.767Z,101551.22
2022-08-02T12:37:54.076Z,101558.06
2022-08-02T12:40:25.681Z,101560.44
2022-08-02T12:42:57.055Z,101556.50
2022-08-02T12:45:25.499Z,101552.47
2022-08-02T12:47:55.514Z,101550.38
2022-08-02T12:50:37.347Z,101542.19
2022-08-02T12:53:09.766Z,101532.91
2022-08-02T12:56:01.905Z,101542.75
2022-08-02T12:58:31.826Z,101537.91
2022-08-02T13:01:01.038Z,101522.56
2022-08-02T13:04:09.362Z,101531.22
2022-08-02T13:06:42.059Z,101524.66
2022-08-02T13:09:15.993Z,101529.75
2022-08-02T13:11:44.178Z,101524.06
2022-08-02T13:14:13.388Z,101519.25
2022-08-02T13:16:43.490Z,101519.00
2022-08-02T13:19:10.459Z,101502.53
2022-08-02T13:21:41.371Z,101504.97
2022-08-02T13:24:38.767Z,101500.28
2022-08-02T13:27:11.722Z,101497.34
2022-08-02T13:29:38.649Z,101488.22
2022-08-02T13:32:06.330Z,101487.94
2022-08-02T13:34:33.338Z,101482.59
2022-08-02T13:37:00.225Z,101478.09
2022-08-02T13:39:27.104Z,101490.25
2022-08-02T13:41:54.074Z,101489.16
2022-08-02T13:44:21.352Z,101483.41
2022-08-02T13:46:48.401Z,101482.19
2022-08-02T13:49:19.353Z,101475.53
2022-08-02T13:51:47.977Z,101478.06
2022-08-02T13:54:15.864Z,101477.13
2022-08-02T13:56:43.178Z,101469.09
2022-08-02T13:59:54.304Z,101469.88
2022-08-02T14:01:58.534Z,101467.06
2022-08-02T14:04:25.972Z,101469.66
2022-08-02T14:06:52.883Z,101471.13
2022-08-02T14:09:19.808Z,101469.03
2022-08-02T14:11:48.380Z,101464.44
2022-08-02T14:14:17.246Z,101460.72
2022-08-02T14:16:45.532Z,101455.94
2022-08-02T14:19:16.306Z,101453.25
2022-08-02T14:21:48.569Z,101453.34
2022-08-02T14:24:21.150Z,101454.97
2022-08-02T14:26:48.949Z,101462.06
2022-08-02T14:29:16.684Z,101461.03
2022-08-02T14:31:45.116Z,101464.38
2022-08-02T14:34:13.625Z,101461.41
2022-08-02T14:36:40.822Z,101462.97
2022-08-02T14:39:07.852Z,101461.72
2022-08-02T14:42:00.078Z,101456.84
2022-08-02T14:44:23.796Z,101458.41
2022-08-02T14:46:51.956Z,101464.25
2022-08-02T14:49:25.318Z,101457.56
2022-08-02T14:51:56.685Z,101457.38
2022-08-02T14:54:30.958Z,101436.00
2022-08-02T14:57:04.038Z,101447.88
2022-08-02T14:59:31.175Z,101437.06
2022-08-02T15:01:59.416Z,101446.66
2022-08-02T15:04:26.468Z,101435.78
2022-08-02T15:06:54.661Z,101432.16
2022-08-02T15:09:22.404Z,101425.84
2022-08-02T15:11:49.837Z,101422.22
2022-08-02T15:14:21.725Z,101424.00
2022-08-02T15:16:58.000Z,101420.47
2022-08-02T15:19:56.156Z,101412.31
2022-08-02T15:22:19.349Z,101409.44
2022-08-02T15:24:47.805Z,101401.31
2022-08-02T15:27:15.515Z,101401.19
2022-08-02T15:29:44.390Z,101397.66
2022-08-02T15:32:11.971Z,101403.88
2022-08-02T15:34:39.766Z,101400.41
2022-08-02T15:37:06.781Z,101402.94
2022-08-02T15:39:33.672Z,101413.53
2022-08-02T15:42:00.589Z,101408.09
2022-08-02T15:44:27.553Z,101409.81
2022-08-02T15:46:54.622Z,101402.59
2022-08-02T15:49:23.674Z,101399.06
2022-08-02T15:51:52.196Z,101407.97
2022-08-02T15:54:19.528Z,101408.94
2022-08-02T15:56:46.510Z,101402.72
2022-08-02T15:59:13.434Z,101399.91
2022-08-02T16:01:44.898Z,101399.75
2022-08-02T16:04:15.951Z,101411.16
2022-08-02T16:06:43.743Z,101412.91
2022-08-02T16:09:10.854Z,101404.75
2022-08-02T16:11:38.167Z,101411.06
2022-08-02T16:14:05.097Z,101405.78
2022-08-02T16:16:35.191Z,101407.63
2022-08-02T16:19:46.899Z,101395.28
2022-08-02T16:21:53.431Z,101389.19
2022-08-02T16:24:20.373Z,101406.91
2022-08-02T16:26:47.609Z,101408.69
2022-08-02T16:29:19.290Z,101408.69
2022-08-02T16:31:47.942Z,101399.84
2022-08-02T16:34:16.557Z,101397.16
2022-08-02T16:36:43.850Z,101401.75
2022-08-02T16:39:10.811Z,101402.94
2022-08-02T16:41:50.463Z,101399.47
2022-08-02T16:44:18.371Z,101402.16
2022-08-02T16:47:01.018Z,101399.56
2022-08-02T16:50:06.613Z,101390.75
2022-08-02T16:52:18.897Z,101385.59
2022-08-02T16:54:49.468Z,101390.94
2022-08-02T16:57:19.701Z,101392.78
2022-08-02T16:59:57.484Z,101395.53
2022-08-02T17:02:28.566Z,101398.44
2022-08-02T17:04:56.740Z,101392.28
2022-08-02T17:08:15.198Z,101395.09
2022-08-02T17:10:11.015Z,101388.09
2022-08-02T17:12:39.370Z,101390.78
2022-08-02T17:16:01.190Z,101397.22
2022-08-02T17:17:55.091Z,101389.44
2022-08-02T17:20:22.029Z,101391.28
2022-08-02T17:22:51.982Z,101392.22
2022-08-02T17:25:20.055Z,101397.69
2022-08-02T17:27:47.397Z,101395.31
2022-08-02T17:30:26.882Z,101399.03
2022-08-02T17:32:57.904Z,101394.72
2022-08-02T17:35:39.996Z,101397.69
2022-08-02T17:38:17.679Z,101391.63
2022-08-02T17:40:45.168Z,101403.50
2022-08-02T17:43:14.740Z,101400.13
2022-08-02T17:46:00.580Z,101404.00
2022-08-02T17:48:55.027Z,101399.09
2022-08-02T17:52:15.690Z,101408.28
2022-08-02T17:54:10.811Z,101405.00
2022-08-02T17:56:38.124Z,101393.22
2022-08-02T17:59:20.430Z,101400.19
2022-08-02T18:01:54.407Z,101405.94
2022-08-02T18:04:26.904Z,101405.38
2022-08-02T18:07:04.464Z,101406.50
2022-08-02T18:09:36.517Z,101403.13
2022-08-02T18:12:03.756Z,101395.34
2022-08-02T18:14:30.706Z,101405.41
2022-08-02T18:16:57.700Z,101408.41
2022-08-02T18:22:11.893Z,101401.03
2022-08-02T18:24:40.560Z,101398.88
2022-08-02T18:27:07.695Z,101402.53
2022-08-02T18:29:38.574Z,101411.59
2022-08-02T18:32:06.095Z,101403.03
2022-08-02T18:34:39.213Z,101407.03
2022-08-02T18:37:07.110Z,101404.84
2022-08-02T18:39:38.442Z,101408.91
2022-08-02T18:42:05.647Z,101403.47
2022-08-02T18:44:32.544Z,101413.81
2022-08-02T18:47:00.561Z,101416.06
2022-08-02T18:49:46.196Z,101409.50
2022-08-02T18:52:14.469Z,101411.78
2022-08-02T18:54:41.653Z,101416.59
2022-08-02T18:58:02.201Z,101416.06
2022-08-02T18:59:56.375Z,101415.53
2022-08-02T19:02:24.943Z,101414.13
2022-08-02T19:04:55.007Z,101413.78
2022-08-02T19:07:22.492Z,101421.22
2022-08-02T19:09:49.649Z,101415.44
2022-08-02T19:12:28.035Z,101417.59
2022-08-02T19:14:56.101Z,101416.03
2022-08-02T19:17:55.376Z,101420.81
2022-08-02T19:20:11.195Z,101411.47
2022-08-02T19:22:46.708Z,101422.41
2022-08-02T19:25:21.133Z,101420.88
2022-08-02T19:27:55.389Z,101419.31
2022-08-02T19:30:22.459Z,101414.22
2022-08-02T19:32:59.762Z,101411.91
2022-08-02T19:35:34.184Z,101411.34
2022-08-02T19:38:09.554Z,101411.63
2022-08-02T19:40:38.598Z,101411.84
2022-08-02T19:44:27.557Z,101406.75
2022-08-02T19:45:57.063Z,101412.44
2022-08-02T19:48:27.200Z,101418.09
2022-08-02T19:51:12.917Z,101421.91
2022-08-02T19:53:46.619Z,101405.50
2022-08-02T19:56:24.689Z,101412.06
2022-08-02T19:58:54.746Z,101407.09
2022-08-02T20:01:28.430Z,101410.09
2022-08-02T20:04:13.351Z,101409.44
2022-08-02T20:09:33.539Z,101419.72
2022-08-02T20:12:14.158Z,101424.19
2022-08-02T20:14:51.136Z,101428.72
2022-08-02T20:17:20.735Z,101429.72
2022-08-02T20:19:47.983Z,101431.53
2022-08-02T20:22:16.178Z,101431.59
2022-08-02T20:24:43.463Z,101432.59
2022-08-02T20:27:17.017Z,101430.06
2022-08-02T20:30:00.773Z,101422.34
2022-08-02T20:32:27.688Z,101437.56
2022-08-02T20:34:55.365Z,101440.28
2022-08-02T20:37:56.056Z,101434.16
2022-08-02T20:40:10.444Z,101438.66
2022-08-02T20:42:44.041Z,101447.66
2022-08-02T20:45:14.583Z,101445.94
2022-08-02T20:47:42.507Z,101454.94
2022-08-02T20:50:32.182Z,101450.56
2022-08-02T20:53:04.155Z,101446.34
2022-08-02T20:55:32.058Z,101442.69
2022-08-02T20:58:02.992Z,101441.81
2022-08-02T21:00:31.683Z,101439.25
2022-08-02T21:03:04.434Z,101437.56
2022-08-02T21:08:21.247Z,101437.06
2022-08-02T21:10:50.316Z,101439.84
2022-08-02T21:13:18.882Z,101431.19
2022-08-02T21:15:50.165Z,101434.94
2022-08-02T21:18:28.735Z,101429.81
2022-08-02T21:21:04.133Z,101437.13
2022-08-02T21:23:36.520Z,101433.66
2022-08-02T21:26:19.742Z,101442.69
2022-08-02T21:28:52.813Z,101437.50
2022-08-02T21:31:19.732Z,101441.28
2022-08-02T21:33:58.539Z,101444.16
2022-08-02T21:36:33.705Z,101433.69
2022-08-02T21:39:09.202Z,101429.34
2022-08-02T21:41:46.504Z,101426.00
2022-08-02T21:44:20.596Z,101428.81
2022-08-02T21:46:50.804Z,101435.09
2022-08-02T21:49:20.756Z,101434.38
2022-08-02T21:51:54.564Z,101434.66
2022-08-02T21:54:22.056Z,101432.13
2022-08-02T21:56:51.977Z,101438.38
2022-08-02T21:59:25.745Z,101440.28
2022-08-02T22:01:56.851Z,101428.91
2022-08-02T22:04:27.737Z,101430.84
2022-08-02T22:06:55.618Z,101432.50
2022-08-02T22:09:42.065Z,101437.75
2022-08-02T22:12:16.918Z,101441.25
2022-08-02T22:14:54.950Z,101435.09
2022-08-02T22:17:51.963Z,101447.47
2022-08-02T22:20:19.686Z,101437.63
2022-08-02T22:22:50.595Z,101445.69
2022-08-02T22:28:35.818Z,101447.53
2022-08-02T22:30:57.219Z,101444.81
2022-08-02T22:33:47.396Z,101447.47
2022-08-02T22:36:30.386Z,101446.66
2022-08-02T22:38:57.931Z,101449.25
2022-08-02T22:41:24.836Z,101451.03
2022-08-02T22:43:51.753Z,101450.25
2022-08-02T22:46:18.932Z,101445.91
2022-08-02T22:48:53.636Z,101453.03
2022-08-02T22:51:21.283Z,101453.88
2022-08-02T22:53:48.191Z,101457.34
2022-08-02T22:56:15.945Z,101450.19
2022-08-02T22:58:54.483Z,101416.69
2022-08-02T22:58:58.666Z,101403.34
2022-08-02T22:59:04.824Z,101445.69
2022-08-02T22:59:11.980Z,101439.47
2022-08-02T23:01:30.254Z,101459.84
2022-08-02T23:03:57.248Z,101456.31
2022-08-02T23:06:24.156Z,101451.03
2022-08-02T23:08:51.105Z,101450.19
2022-08-02T23:11:18.103Z,101446.72
2022-08-02T23:13:45.073Z,101445.00
2022-08-02T23:16:30.722Z,101444.06
2022-08-02T23:19:16.239Z,101453.03
2022-08-02T23:22:00.739Z,101440.72
2022-08-02T23:24:32.902Z,101439.91
2022-08-02T23:26:59.854Z,101434.66
2022-08-02T23:29:26.835Z,101444.50
2022-08-02T23:31:53.735Z,101430.63
2022-08-02T23:34:21.872Z,101436.03
2022-08-02T23:36:48.804Z,101439.53
2022-08-02T23:39:15.725Z,101439.66
2022-08-02T23:41:42.674Z,101435.31
2022-08-02T23:44:14.503Z,101431.03
2022-08-02T23:46:46.692Z,101433.63
2022-08-02T23:49:15.726Z,101435.31
2022-08-02T23:51:43.183Z,101430.81
2022-08-02T23:54:11.298Z,101432.53
2022-08-02T23:56:39.141Z,101434.19
2022-08-02T23:59:09.844Z,101424.63
